sensor_id;sensor_type;location;lat;lon;timestamp;P1;durP1;ratioP1;P2;durP2;ratioP2
22172;SDS011;11252;50.596;17.648;2024-03-08T05:21:44;60.50;;;34.95;;
22172;SDS011;11252;50.596;17.648;2024-03-08T05:24:49;60.20;;;36.83;;
22172;SDS011;11252;50.596;17.648;2024-03-08T05:27:17;57.23;;;33.07;;
22172;SDS011;11252;50.596;17.648;2024-03-08T05:29:46;65.93;;;36.63;;
22172;SDS011;11252;50.596;17.648;2024-03-08T05:32:13;53.77;;;34.67;;
22172;SDS011;11252;50.596;17.648;2024-03-08T05:34:44;53.13;;;32.20;;
22172;SDS011;11252;50.596;17.648;2024-03-08T05:37:13;57.80;;;34.87;;
22172;SDS011;11252;50.596;17.648;2024-03-08T05:39:41;61.87;;;37.67;;
22172;SDS011;11252;50.596;17.648;2024-03-08T05:42:08;78.40;;;48.73;;
22172;SDS011;11252;50.596;17.648;2024-03-08T05:44:36;107.73;;;70.30;;
22172;SDS011;11252;50.596;17.648;2024-03-08T05:47:07;156.90;;;99.93;;
22172;SDS011;11252;50.596;17.648;2024-03-08T05:49:34;115.20;;;70.37;;
22172;SDS011;11252;50.596;17.648;2024-03-08T05:52:26;87.73;;;56.80;;
22172;SDS011;11252;50.596;17.648;2024-03-08T05:54:53;71.27;;;41.20;;
22172;SDS011;11252;50.596;17.648;2024-03-08T05:57:20;64.73;;;38.70;;
22172;SDS011;11252;50.596;17.648;2024-03-08T05:59:49;66.63;;;36.87;;
22172;SDS011;11252;50.596;17.648;2024-03-08T06:02:16;67.37;;;37.20;;
22172;SDS011;11252;50.596;17.648;2024-03-08T06:04:46;63.63;;;36.40;;
22172;SDS011;11252;50.596;17.648;2024-03-08T06:07:13;64.40;;;35.97;;
22172;SDS011;11252;50.596;17.648;2024-03-08T06:09:41;59.10;;;36.17;;
22172;SDS011;11252;50.596;17.648;2024-03-08T06:12:11;64.57;;;38.67;;
22172;SDS011;11252;50.596;17.648;2024-03-08T06:14:45;66.10;;;38.83;;
22172;SDS011;11252;50.596;17.648;2024-03-08T06:17:12;62.50;;;38.03;;
22172;SDS011;11252;50.596;17.648;2024-03-08T06:19:39;64.33;;;40.73;;
22172;SDS011;11252;50.596;17.648;2024-03-08T06:22:06;74.30;;;43.13;;
22172;SDS011;11252;50.596;17.648;2024-03-08T06:24:36;72.33;;;40.43;;
22172;SDS011;11252;50.596;17.648;2024-03-08T06:27:04;71.27;;;43.20;;
22172;SDS011;11252;50.596;17.648;2024-03-08T06:29:32;72.90;;;44.73;;
22172;SDS011;11252;50.596;17.648;2024-03-08T06:31:59;63.80;;;39.87;;
22172;SDS011;11252;50.596;17.648;2024-03-08T06:34:28;61.80;;;38.13;;
22172;SDS011;11252;50.596;17.648;2024-03-08T06:36:55;65.33;;;39.97;;
22172;SDS011;11252;50.596;17.648;2024-03-08T06:39:27;68.47;;;40.07;;
22172;SDS011;11252;50.596;17.648;2024-03-08T06:41:58;59.00;;;37.53;;
22172;SDS011;11252;50.596;17.648;2024-03-08T06:44:25;82.30;;;46.10;;
22172;SDS011;11252;50.596;17.648;2024-03-08T06:46:52;65.97;;;39.53;;
22172;SDS011;11252;50.596;17.648;2024-03-08T06:49:22;63.37;;;36.67;;
22172;SDS011;11252;50.596;17.648;2024-03-08T06:51:49;56.03;;;35.13;;
22172;SDS011;11252;50.596;17.648;2024-03-08T06:54:16;58.30;;;37.40;;
22172;SDS011;11252;50.596;17.648;2024-03-08T06:56:43;64.80;;;36.87;;
22172;SDS011;11252;50.596;17.648;2024-03-08T06:59:11;65.73;;;37.90;;
22172;SDS011;11252;50.596;17.648;2024-03-08T07:01:39;57.70;;;35.87;;
22172;SDS011;11252;50.596;17.648;2024-03-08T07:04:06;54.37;;;33.77;;
22172;SDS011;11252;50.596;17.648;2024-03-08T07:06:34;51.57;;;32.77;;
22172;SDS011;11252;50.596;17.648;2024-03-08T07:09:03;51.87;;;33.73;;
22172;SDS011;11252;50.596;17.648;2024-03-08T07:11:30;55.70;;;36.10;;
22172;SDS011;11252;50.596;17.648;2024-03-08T07:13:57;60.30;;;38.97;;
22172;SDS011;11252;50.596;17.648;2024-03-08T07:16:24;65.10;;;38.50;;
22172;SDS011;11252;50.596;17.648;2024-03-08T07:18:53;54.53;;;34.43;;
22172;SDS011;11252;50.596;17.648;2024-03-08T07:21:20;55.50;;;34.07;;
22172;SDS011;11252;50.596;17.648;2024-03-08T07:23:47;59.90;;;35.27;;
22172;SDS011;11252;50.596;17.648;2024-03-08T07:26:36;54.70;;;33.93;;
22172;SDS011;11252;50.596;17.648;2024-03-08T07:29:04;59.17;;;36.17;;
22172;SDS011;11252;50.596;17.648;2024-03-08T07:31:32;59.10;;;34.83;;
22172;SDS011;11252;50.596;17.648;2024-03-08T07:34:08;56.53;;;37.30;;
22172;SDS011;11252;50.596;17.648;2024-03-08T07:36:38;73.47;;;43.77;;
22172;SDS011;11252;50.596;17.648;2024-03-08T07:39:05;72.40;;;41.87;;
22172;SDS011;11252;50.596;17.648;2024-03-08T07:41:38;58.67;;;36.27;;
22172;SDS011;11252;50.596;17.648;2024-03-08T07:44:07;75.17;;;42.20;;
22172;SDS011;11252;50.596;17.648;2024-03-08T07:46:34;62.80;;;36.67;;
22172;SDS011;11252;50.596;17.648;2024-03-08T07:49:01;72.57;;;42.90;;
22172;SDS011;11252;50.596;17.648;2024-03-08T07:51:29;71.53;;;41.67;;
22172;SDS011;11252;50.596;17.648;2024-03-08T07:53:57;75.67;;;47.67;;
22172;SDS011;11252;50.596;17.648;2024-03-08T07:56:24;85.40;;;50.00;;
22172;SDS011;11252;50.596;17.648;2024-03-08T07:58:51;83.53;;;44.47;;
22172;SDS011;11252;50.596;17.648;2024-03-08T08:01:19;57.10;;;34.60;;
22172;SDS011;11252;50.596;17.648;2024-03-08T08:03:47;81.10;;;45.60;;
22172;SDS011;11252;50.596;17.648;2024-03-08T08:06:15;72.53;;;45.50;;
22172;SDS011;11252;50.596;17.648;2024-03-08T08:08:42;54.50;;;35.87;;
22172;SDS011;11252;50.596;17.648;2024-03-08T08:11:10;57.00;;;35.37;;
22172;SDS011;11252;50.596;17.648;2024-03-08T08:13:42;45.97;;;28.80;;
22172;SDS011;11252;50.596;17.648;2024-03-08T08:16:09;42.90;;;26.60;;
22172;SDS011;11252;50.596;17.648;2024-03-08T08:18:37;55.63;;;32.80;;
22172;SDS011;11252;50.596;17.648;2024-03-08T08:21:09;41.43;;;27.77;;
22172;SDS011;11252;50.596;17.648;2024-03-08T08:23:37;40.87;;;26.93;;
22172;SDS011;11252;50.596;17.648;2024-03-08T08:26:04;46.00;;;30.03;;
22172;SDS011;11252;50.596;17.648;2024-03-08T08:28:32;39.83;;;26.67;;
22172;SDS011;11252;50.596;17.648;2024-03-08T08:30:59;40.17;;;27.33;;
22172;SDS011;11252;50.596;17.648;2024-03-08T08:33:26;41.43;;;29.07;;
22172;SDS011;11252;50.596;17.648;2024-03-08T08:35:53;37.30;;;26.53;;
22172;SDS011;11252;50.596;17.648;2024-03-08T08:38:20;40.70;;;28.53;;
22172;SDS011;11252;50.596;17.648;2024-03-08T08:40:48;47.73;;;30.70;;
22172;SDS011;11252;50.596;17.648;2024-03-08T08:43:16;35.80;;;26.10;;
22172;SDS011;11252;50.596;17.648;2024-03-08T08:45:44;33.47;;;26.03;;
22172;SDS011;11252;50.596;17.648;2024-03-08T08:48:13;41.40;;;29.17;;
22172;SDS011;11252;50.596;17.648;2024-03-08T08:50:40;46.77;;;30.00;;
22172;SDS011;11252;50.596;17.648;2024-03-08T08:53:07;36.53;;;26.97;;
22172;SDS011;11252;50.596;17.648;2024-03-08T08:55:35;37.40;;;25.43;;
22172;SDS011;11252;50.596;17.648;2024-03-08T08:58:02;35.17;;;25.43;;
22172;SDS011;11252;50.596;17.648;2024-03-08T09:00:30;36.63;;;24.73;;
22172;SDS011;11252;50.596;17.648;2024-03-08T09:02:58;34.80;;;25.40;;
22172;SDS011;11252;50.596;17.648;2024-03-08T09:05:25;31.30;;;23.23;;
22172;SDS011;11252;50.596;17.648;2024-03-08T09:07:52;34.57;;;24.63;;
22172;SDS011;11252;50.596;17.648;2024-03-08T09:10:20;31.70;;;23.03;;
22172;SDS011;11252;50.596;17.648;2024-03-08T09:12:48;31.17;;;23.80;;
22172;SDS011;11252;50.596;17.648;2024-03-08T09:15:15;30.67;;;23.20;;
22172;SDS011;11252;50.596;17.648;2024-03-08T09:17:44;30.37;;;22.00;;
22172;SDS011;11252;50.596;17.648;2024-03-08T09:20:15;31.20;;;22.77;;
22172;SDS011;11252;50.596;17.648;2024-03-08T09:22:45;32.13;;;23.50;;
22172;SDS011;11252;50.596;17.648;2024-03-08T09:25:13;27.13;;;22.00;;
22172;SDS011;11252;50.596;17.648;2024-03-08T09:27:40;32.53;;;22.07;;
22172;SDS011;11252;50.596;17.648;2024-03-08T09:30:07;26.77;;;21.13;;
22172;SDS011;11252;50.596;17.648;2024-03-08T09:32:35;36.40;;;26.10;;
22172;SDS011;11252;50.596;17.648;2024-03-08T09:35:03;31.17;;;24.03;;
22172;SDS011;11252;50.596;17.648;2024-03-08T09:37:34;44.03;;;30.97;;
22172;SDS011;11252;50.596;17.648;2024-03-08T09:40:02;34.83;;;25.70;;
22172;SDS011;11252;50.596;17.648;2024-03-08T09:42:37;32.40;;;24.50;;
22172;SDS011;11252;50.596;17.648;2024-03-08T09:45:05;34.43;;;25.20;;
22172;SDS011;11252;50.596;17.648;2024-03-08T09:47:41;36.50;;;24.93;;
22172;SDS011;11252;50.596;17.648;2024-03-08T09:50:10;26.20;;;20.63;;
22172;SDS011;11252;50.596;17.648;2024-03-08T09:52:48;29.60;;;22.73;;
22172;SDS011;11252;50.596;17.648;2024-03-08T09:55:16;29.43;;;23.97;;
22172;SDS011;11252;50.596;17.648;2024-03-08T09:57:45;28.13;;;23.73;;
22172;SDS011;11252;50.596;17.648;2024-03-08T10:00:34;27.37;;;23.13;;
22172;SDS011;11252;50.596;17.648;2024-03-08T10:03:02;29.47;;;22.13;;
22172;SDS011;11252;50.596;17.648;2024-03-08T10:05:32;30.07;;;24.40;;
22172;SDS011;11252;50.596;17.648;2024-03-08T10:08:00;26.43;;;21.37;;
22172;SDS011;11252;50.596;17.648;2024-03-08T10:10:27;29.27;;;23.10;;
22172;SDS011;11252;50.596;17.648;2024-03-08T10:12:55;28.87;;;22.60;;
22172;SDS011;11252;50.596;17.648;2024-03-08T10:15:23;27.83;;;21.87;;
22172;SDS011;11252;50.596;17.648;2024-03-08T10:17:51;26.70;;;23.27;;
22172;SDS011;11252;50.596;17.648;2024-03-08T10:20:20;30.67;;;25.03;;
22172;SDS011;11252;50.596;17.648;2024-03-08T10:22:47;29.50;;;24.60;;
22172;SDS011;11252;50.596;17.648;2024-03-08T10:25:32;31.27;;;23.80;;
22172;SDS011;11252;50.596;17.648;2024-03-08T10:28:02;29.27;;;23.63;;
22172;SDS011;11252;50.596;17.648;2024-03-08T10:30:30;26.83;;;23.57;;
22172;SDS011;11252;50.596;17.648;2024-03-08T10:32:58;26.53;;;22.47;;
22172;SDS011;11252;50.596;17.648;2024-03-08T10:35:26;28.37;;;24.33;;
22172;SDS011;11252;50.596;17.648;2024-03-08T10:37:53;27.70;;;24.70;;
22172;SDS011;11252;50.596;17.648;2024-03-08T10:40:27;28.33;;;22.93;;
22172;SDS011;11252;50.596;17.648;2024-03-08T10:42:55;26.67;;;23.23;;
22172;SDS011;11252;50.596;17.648;2024-03-08T10:45:36;30.97;;;25.53;;
22172;SDS011;11252;50.596;17.648;2024-03-08T10:48:16;31.30;;;24.10;;
22172;SDS011;11252;50.596;17.648;2024-03-08T10:51:05;37.90;;;28.97;;
22172;SDS011;11252;50.596;17.648;2024-03-08T10:53:36;26.83;;;24.00;;
22172;SDS011;11252;50.596;17.648;2024-03-08T10:56:07;27.73;;;24.77;;
22172;SDS011;11252;50.596;17.648;2024-03-08T10:58:36;27.30;;;24.40;;
22172;SDS011;11252;50.596;17.648;2024-03-08T11:01:05;27.20;;;24.30;;
22172;SDS011;11252;50.596;17.648;2024-03-08T11:03:45;26.80;;;23.87;;
22172;SDS011;11252;50.596;17.648;2024-03-08T11:06:17;26.13;;;23.37;;
22172;SDS011;11252;50.596;17.648;2024-03-08T11:08:50;28.37;;;24.27;;
22172;SDS011;11252;50.596;17.648;2024-03-08T11:11:51;26.10;;;23.47;;
22172;SDS011;11252;50.596;17.648;2024-03-08T11:14:59;25.93;;;23.00;;
22172;SDS011;11252;50.596;17.648;2024-03-08T11:17:10;27.43;;;22.00;;
22172;SDS011;11252;50.596;17.648;2024-03-08T11:19:46;33.70;;;25.73;;
22172;SDS011;11252;50.596;17.648;2024-03-08T11:22:21;33.87;;;27.33;;
22172;SDS011;11252;50.596;17.648;2024-03-08T11:25:30;30.47;;;26.10;;
22172;SDS011;11252;50.596;17.648;2024-03-08T11:28:18;29.50;;;22.87;;
22172;SDS011;11252;50.596;17.648;2024-03-08T11:31:21;26.43;;;22.77;;
22172;SDS011;11252;50.596;17.648;2024-03-08T11:33:39;29.17;;;24.27;;
22172;SDS011;11252;50.596;17.648;2024-03-08T11:36:10;33.17;;;24.20;;
22172;SDS011;11252;50.596;17.648;2024-03-08T11:38:41;28.30;;;24.17;;
22172;SDS011;11252;50.596;17.648;2024-03-08T11:41:10;31.50;;;25.93;;
22172;SDS011;11252;50.596;17.648;2024-03-08T11:43:44;28.37;;;23.10;;
22172;SDS011;11252;50.596;17.648;2024-03-08T11:46:12;25.17;;;22.47;;
22172;SDS011;11252;50.596;17.648;2024-03-08T11:48:41;29.77;;;23.77;;
22172;SDS011;11252;50.596;17.648;2024-03-08T11:51:13;26.20;;;23.27;;
22172;SDS011;11252;50.596;17.648;2024-03-08T11:53:42;48.50;;;36.30;;
22172;SDS011;11252;50.596;17.648;2024-03-08T11:56:13;28.53;;;22.63;;
22172;SDS011;11252;50.596;17.648;2024-03-08T11:58:51;33.07;;;26.53;;
22172;SDS011;11252;50.596;17.648;2024-03-08T12:01:24;41.87;;;33.67;;
22172;SDS011;11252;50.596;17.648;2024-03-08T12:03:52;30.17;;;25.33;;
22172;SDS011;11252;50.596;17.648;2024-03-08T12:06:21;33.43;;;26.57;;
22172;SDS011;11252;50.596;17.648;2024-03-08T12:08:48;38.77;;;27.73;;
22172;SDS011;11252;50.596;17.648;2024-03-08T12:11:18;31.87;;;25.27;;
22172;SDS011;11252;50.596;17.648;2024-03-08T12:13:49;27.97;;;24.70;;
22172;SDS011;11252;50.596;17.648;2024-03-08T12:16:18;27.60;;;24.70;;
22172;SDS011;11252;50.596;17.648;2024-03-08T12:18:47;31.20;;;25.57;;
22172;SDS011;11252;50.596;17.648;2024-03-08T12:21:15;30.70;;;25.30;;
22172;SDS011;11252;50.596;17.648;2024-03-08T12:23:51;26.37;;;23.47;;
22172;SDS011;11252;50.596;17.648;2024-03-08T12:26:35;29.93;;;25.90;;
22172;SDS011;11252;50.596;17.648;2024-03-08T12:31:52;25.63;;;22.80;;
22172;SDS011;11252;50.596;17.648;2024-03-08T12:34:30;38.35;;;27.67;;
22172;SDS011;11252;50.596;17.648;2024-03-08T12:36:58;25.33;;;22.60;;
22172;SDS011;11252;50.596;17.648;2024-03-08T12:39:25;29.27;;;26.07;;
22172;SDS011;11252;50.596;17.648;2024-03-08T12:41:54;28.85;;;25.65;;
22172;SDS011;11252;50.596;17.648;2024-03-08T12:44:21;30.98;;;23.40;;
22172;SDS011;11252;50.596;17.648;2024-03-08T12:46:48;37.63;;;29.67;;
22172;SDS011;11252;50.596;17.648;2024-03-08T12:49:19;32.13;;;28.75;;
22172;SDS011;11252;50.596;17.648;2024-03-08T12:51:49;31.93;;;26.57;;
22172;SDS011;11252;50.596;17.648;2024-03-08T12:54:17;34.37;;;29.17;;
22172;SDS011;11252;50.596;17.648;2024-03-08T12:56:46;27.00;;;24.13;;
22172;SDS011;11252;50.596;17.648;2024-03-08T12:59:13;31.20;;;25.57;;
22172;SDS011;11252;50.596;17.648;2024-03-08T13:01:40;34.07;;;30.00;;
22172;SDS011;11252;50.596;17.648;2024-03-08T13:04:07;44.93;;;33.77;;
22172;SDS011;11252;50.596;17.648;2024-03-08T13:06:38;36.23;;;28.60;;
22172;SDS011;11252;50.596;17.648;2024-03-08T13:09:07;36.43;;;28.97;;
22172;SDS011;11252;50.596;17.648;2024-03-08T13:11:36;34.90;;;29.67;;
22172;SDS011;11252;50.596;17.648;2024-03-08T13:14:03;37.03;;;31.10;;
22172;SDS011;11252;50.596;17.648;2024-03-08T13:16:34;26.63;;;23.85;;
22172;SDS011;11252;50.596;17.648;2024-03-08T13:19:01;29.23;;;26.07;;
22172;SDS011;11252;50.596;17.648;2024-03-08T13:21:28;27.03;;;23.70;;
22172;SDS011;11252;50.596;17.648;2024-03-08T13:23:56;28.43;;;25.47;;
22172;SDS011;11252;50.596;17.648;2024-03-08T13:26:25;30.03;;;24.40;;
22172;SDS011;11252;50.596;17.648;2024-03-08T13:28:59;27.43;;;23.93;;
22172;SDS011;11252;50.596;17.648;2024-03-08T13:31:27;26.07;;;22.63;;
22172;SDS011;11252;50.596;17.648;2024-03-08T13:33:54;26.73;;;23.83;;
22172;SDS011;11252;50.596;17.648;2024-03-08T13:36:25;25.73;;;22.77;;
22172;SDS011;11252;50.596;17.648;2024-03-08T13:38:57;29.43;;;23.93;;
22172;SDS011;11252;50.596;17.648;2024-03-08T13:41:26;30.87;;;23.60;;
22172;SDS011;11252;50.596;17.648;2024-03-08T13:43:56;30.77;;;25.10;;
22172;SDS011;11252;50.596;17.648;2024-03-08T13:46:23;28.67;;;24.83;;
22172;SDS011;11252;50.596;17.648;2024-03-08T13:48:51;26.87;;;23.77;;
22172;SDS011;11252;50.596;17.648;2024-03-08T13:51:20;25.03;;;22.33;;
22172;SDS011;11252;50.596;17.648;2024-03-08T13:53:49;27.57;;;23.33;;
22172;SDS011;11252;50.596;17.648;2024-03-08T13:56:16;25.53;;;22.53;;
22172;SDS011;11252;50.596;17.648;2024-03-08T13:58:43;25.33;;;22.20;;
22172;SDS011;11252;50.596;17.648;2024-03-08T14:01:10;26.73;;;23.57;;
22172;SDS011;11252;50.596;17.648;2024-03-08T14:03:39;28.83;;;24.00;;
22172;SDS011;11252;50.596;17.648;2024-03-08T14:06:09;26.90;;;23.97;;
22172;SDS011;11252;50.596;17.648;2024-03-08T14:08:47;28.13;;;24.47;;
22172;SDS011;11252;50.596;17.648;2024-03-08T14:11:14;29.97;;;25.43;;
22172;SDS011;11252;50.596;17.648;2024-03-08T14:13:42;33.90;;;28.90;;
22172;SDS011;11252;50.596;17.648;2024-03-08T14:16:14;31.20;;;25.53;;
22172;SDS011;11252;50.596;17.648;2024-03-08T14:18:42;33.23;;;26.80;;
22172;SDS011;11252;50.596;17.648;2024-03-08T14:21:09;32.63;;;28.17;;
22172;SDS011;11252;50.596;17.648;2024-03-08T14:23:37;30.13;;;24.73;;
22172;SDS011;11252;50.596;17.648;2024-03-08T14:26:09;31.60;;;26.63;;
22172;SDS011;11252;50.596;17.648;2024-03-08T14:28:37;32.87;;;26.57;;
22172;SDS011;11252;50.596;17.648;2024-03-08T14:31:05;32.57;;;24.10;;
22172;SDS011;11252;50.596;17.648;2024-03-08T14:33:37;36.60;;;25.97;;
22172;SDS011;11252;50.596;17.648;2024-03-08T14:36:09;28.80;;;23.87;;
22172;SDS011;11252;50.596;17.648;2024-03-08T14:38:40;33.73;;;26.67;;
22172;SDS011;11252;50.596;17.648;2024-03-08T14:41:07;28.80;;;24.70;;
22172;SDS011;11252;50.596;17.648;2024-03-08T14:43:35;33.17;;;25.80;;
22172;SDS011;11252;50.596;17.648;2024-03-08T14:46:03;27.57;;;24.07;;
22172;SDS011;11252;50.596;17.648;2024-03-08T14:48:30;36.83;;;27.30;;
22172;SDS011;11252;50.596;17.648;2024-03-08T14:50:57;31.97;;;24.53;;
22172;SDS011;11252;50.596;17.648;2024-03-08T14:53:25;31.70;;;25.30;;
22172;SDS011;11252;50.596;17.648;2024-03-08T14:55:53;31.60;;;25.73;;
22172;SDS011;11252;50.596;17.648;2024-03-08T14:58:21;28.70;;;24.90;;
22172;SDS011;11252;50.596;17.648;2024-03-08T15:00:48;31.33;;;25.53;;
22172;SDS011;11252;50.596;17.648;2024-03-08T15:03:21;29.20;;;23.97;;
22172;SDS011;11252;50.596;17.648;2024-03-08T15:05:52;29.00;;;24.03;;
22172;SDS011;11252;50.596;17.648;2024-03-08T15:08:20;31.83;;;24.87;;
22172;SDS011;11252;50.596;17.648;2024-03-08T15:10:48;30.57;;;24.33;;
22172;SDS011;11252;50.596;17.648;2024-03-08T15:13:21;33.53;;;26.60;;
22172;SDS011;11252;50.596;17.648;2024-03-08T15:15:50;40.17;;;30.33;;
22172;SDS011;11252;50.596;17.648;2024-03-08T15:18:23;35.13;;;29.63;;
22172;SDS011;11252;50.596;17.648;2024-03-08T15:21:17;32.37;;;24.87;;
22172;SDS011;11252;50.596;17.648;2024-03-08T15:23:45;32.50;;;25.27;;
22172;SDS011;11252;50.596;17.648;2024-03-08T15:26:19;37.53;;;27.00;;
22172;SDS011;11252;50.596;17.648;2024-03-08T15:28:46;32.50;;;26.03;;
22172;SDS011;11252;50.596;17.648;2024-03-08T15:31:19;32.27;;;25.93;;
22172;SDS011;11252;50.596;17.648;2024-03-08T15:33:49;36.53;;;28.90;;
22172;SDS011;11252;50.596;17.648;2024-03-08T15:36:25;37.13;;;29.23;;
22172;SDS011;11252;50.596;17.648;2024-03-08T15:38:55;35.33;;;27.17;;
22172;SDS011;11252;50.596;17.648;2024-03-08T15:41:22;38.03;;;28.83;;
22172;SDS011;11252;50.596;17.648;2024-03-08T15:43:55;33.37;;;24.93;;
22172;SDS011;11252;50.596;17.648;2024-03-08T15:46:23;38.63;;;29.30;;
22172;SDS011;11252;50.596;17.648;2024-03-08T15:48:51;38.57;;;30.73;;
22172;SDS011;11252;50.596;17.648;2024-03-08T15:51:19;49.03;;;38.77;;
22172;SDS011;11252;50.596;17.648;2024-03-08T15:53:46;36.57;;;29.70;;
22172;SDS011;11252;50.596;17.648;2024-03-08T15:56:19;41.33;;;30.57;;
22172;SDS011;11252;50.596;17.648;2024-03-08T15:58:50;39.07;;;29.53;;
22172;SDS011;11252;50.596;17.648;2024-03-08T16:01:19;37.10;;;27.80;;
22172;SDS011;11252;50.596;17.648;2024-03-08T16:03:49;47.13;;;35.40;;
22172;SDS011;11252;50.596;17.648;2024-03-08T16:06:24;54.90;;;34.47;;
22172;SDS011;11252;50.596;17.648;2024-03-08T16:08:52;50.80;;;37.33;;
22172;SDS011;11252;50.596;17.648;2024-03-08T16:11:19;55.80;;;36.40;;
22172;SDS011;11252;50.596;17.648;2024-03-08T16:13:48;54.23;;;37.30;;
22172;SDS011;11252;50.596;17.648;2024-03-08T16:16:16;57.30;;;40.07;;
22172;SDS011;11252;50.596;17.648;2024-03-08T16:18:43;56.83;;;40.33;;
22172;SDS011;11252;50.596;17.648;2024-03-08T16:21:11;56.37;;;39.87;;
22172;SDS011;11252;50.596;17.648;2024-03-08T16:23:42;63.17;;;41.03;;
22172;SDS011;11252;50.596;17.648;2024-03-08T16:26:10;68.50;;;44.27;;
22172;SDS011;11252;50.596;17.648;2024-03-08T16:28:37;89.83;;;57.43;;
22172;SDS011;11252;50.596;17.648;2024-03-08T16:31:06;156.23;;;91.13;;
22172;SDS011;11252;50.596;17.648;2024-03-08T16:33:34;148.93;;;85.87;;
22172;SDS011;11252;50.596;17.648;2024-03-08T16:36:01;164.27;;;96.57;;
22172;SDS011;11252;50.596;17.648;2024-03-08T16:38:29;128.27;;;80.17;;
22172;SDS011;11252;50.596;17.648;2024-03-08T16:41:00;149.40;;;100.50;;
22172;SDS011;11252;50.596;17.648;2024-03-08T16:43:27;244.80;;;169.80;;
22172;SDS011;11252;50.596;17.648;2024-03-08T16:45:55;155.93;;;107.90;;
22172;SDS011;11252;50.596;17.648;2024-03-08T16:48:25;116.23;;;77.33;;
22172;SDS011;11252;50.596;17.648;2024-03-08T16:50:52;93.30;;;60.17;;
22172;SDS011;11252;50.596;17.648;2024-03-08T16:53:21;141.37;;;71.37;;
22172;SDS011;11252;50.596;17.648;2024-03-08T16:55:48;198.33;;;85.20;;
22172;SDS011;11252;50.596;17.648;2024-03-08T16:58:18;245.87;;;100.00;;
22172;SDS011;11252;50.596;17.648;2024-03-08T17:00:48;342.33;;;124.20;;
22172;SDS011;11252;50.596;17.648;2024-03-08T17:03:15;299.70;;;110.07;;
22172;SDS011;11252;50.596;17.648;2024-03-08T17:05:43;249.30;;;99.37;;
22172;SDS011;11252;50.596;17.648;2024-03-08T17:08:21;210.70;;;92.77;;
22172;SDS011;11252;50.596;17.648;2024-03-08T17:10:51;243.77;;;101.67;;
22172;SDS011;11252;50.596;17.648;2024-03-08T17:13:19;322.90;;;122.53;;
22172;SDS011;11252;50.596;17.648;2024-03-08T17:15:46;330.63;;;122.37;;
22172;SDS011;11252;50.596;17.648;2024-03-08T17:18:15;263.87;;;105.70;;
22172;SDS011;11252;50.596;17.648;2024-03-08T17:20:43;200.83;;;88.47;;
22172;SDS011;11252;50.596;17.648;2024-03-08T17:23:10;155.10;;;76.63;;
22172;SDS011;11252;50.596;17.648;2024-03-08T17:25:43;170.17;;;79.23;;
22172;SDS011;11252;50.596;17.648;2024-03-08T17:28:10;162.47;;;77.00;;
22172;SDS011;11252;50.596;17.648;2024-03-08T17:30:39;131.80;;;67.53;;
22172;SDS011;11252;50.596;17.648;2024-03-08T17:33:07;115.23;;;62.73;;
22172;SDS011;11252;50.596;17.648;2024-03-08T17:35:42;112.33;;;62.10;;
22172;SDS011;11252;50.596;17.648;2024-03-08T17:38:11;100.93;;;58.47;;
22172;SDS011;11252;50.596;17.648;2024-03-08T17:40:41;99.50;;;59.90;;
22172;SDS011;11252;50.596;17.648;2024-03-08T17:43:11;196.50;;;94.30;;
22172;SDS011;11252;50.596;17.648;2024-03-08T17:45:40;302.73;;;133.40;;
22172;SDS011;11252;50.596;17.648;2024-03-08T17:48:12;263.43;;;117.63;;
22172;SDS011;11252;50.596;17.648;2024-03-08T17:50:44;198.63;;;100.40;;
22172;SDS011;11252;50.596;17.648;2024-03-08T17:53:15;221.63;;;114.10;;
22172;SDS011;11252;50.596;17.648;2024-03-08T17:55:45;161.50;;;97.83;;
22172;SDS011;11252;50.596;17.648;2024-03-08T17:58:18;134.57;;;83.40;;
22172;SDS011;11252;50.596;17.648;2024-03-08T18:00:47;108.13;;;68.17;;
22172;SDS011;11252;50.596;17.648;2024-03-08T18:03:18;131.17;;;71.97;;
22172;SDS011;11252;50.596;17.648;2024-03-08T18:05:49;105.30;;;62.33;;
22172;SDS011;11252;50.596;17.648;2024-03-08T18:08:18;93.33;;;56.83;;
22172;SDS011;11252;50.596;17.648;2024-03-08T18:10:45;83.97;;;53.73;;
22172;SDS011;11252;50.596;17.648;2024-03-08T18:13:15;89.00;;;53.20;;
22172;SDS011;11252;50.596;17.648;2024-03-08T18:15:43;77.03;;;50.97;;
22172;SDS011;11252;50.596;17.648;2024-03-08T18:18:15;82.83;;;52.40;;
22172;SDS011;11252;50.596;17.648;2024-03-08T18:20:44;84.23;;;52.67;;
22172;SDS011;11252;50.596;17.648;2024-03-08T18:23:15;88.83;;;54.23;;
22172;SDS011;11252;50.596;17.648;2024-03-08T18:25:43;86.13;;;53.17;;
22172;SDS011;11252;50.596;17.648;2024-03-08T18:28:12;93.43;;;56.70;;
22172;SDS011;11252;50.596;17.648;2024-03-08T18:30:50;98.47;;;57.23;;
22172;SDS011;11252;50.596;17.648;2024-03-08T18:33:19;107.37;;;63.70;;
22172;SDS011;11252;50.596;17.648;2024-03-08T18:35:47;169.07;;;84.87;;
22172;SDS011;11252;50.596;17.648;2024-03-08T18:38:14;159.43;;;78.47;;
22172;SDS011;11252;50.596;17.648;2024-03-08T18:40:45;199.53;;;92.07;;
22172;SDS011;11252;50.596;17.648;2024-03-08T18:43:14;248.10;;;106.80;;
22172;SDS011;11252;50.596;17.648;2024-03-08T18:45:41;269.00;;;111.50;;
22172;SDS011;11252;50.596;17.648;2024-03-08T18:48:09;278.00;;;116.33;;
22172;SDS011;11252;50.596;17.648;2024-03-08T18:50:38;243.50;;;107.40;;
22172;SDS011;11252;50.596;17.648;2024-03-08T18:53:06;233.30;;;114.97;;
22172;SDS011;11252;50.596;17.648;2024-03-08T18:55:34;267.20;;;136.60;;
22172;SDS011;11252;50.596;17.648;2024-03-08T18:58:02;225.47;;;124.03;;
22172;SDS011;11252;50.596;17.648;2024-03-08T19:00:29;247.07;;;130.63;;
22172;SDS011;11252;50.596;17.648;2024-03-08T19:03:02;221.63;;;119.40;;
22172;SDS011;11252;50.596;17.648;2024-03-08T19:05:31;208.93;;;114.07;;
22172;SDS011;11252;50.596;17.648;2024-03-08T19:07:59;178.37;;;99.67;;
22172;SDS011;11252;50.596;17.648;2024-03-08T19:10:35;183.27;;;124.23;;
22172;SDS011;11252;50.596;17.648;2024-03-08T19:13:05;188.17;;;116.90;;
22172;SDS011;11252;50.596;17.648;2024-03-08T19:15:32;149.37;;;99.90;;
22172;SDS011;11252;50.596;17.648;2024-03-08T19:18:00;124.30;;;85.80;;
22172;SDS011;11252;50.596;17.648;2024-03-08T19:20:31;103.20;;;67.27;;
22172;SDS011;11252;50.596;17.648;2024-03-08T19:23:02;117.63;;;73.60;;
22172;SDS011;11252;50.596;17.648;2024-03-08T19:25:32;125.87;;;76.17;;
22172;SDS011;11252;50.596;17.648;2024-03-08T19:28:03;124.13;;;76.30;;
22172;SDS011;11252;50.596;17.648;2024-03-08T19:30:32;118.47;;;71.53;;
22172;SDS011;11252;50.596;17.648;2024-03-08T19:33:06;122.13;;;69.20;;
22172;SDS011;11252;50.596;17.648;2024-03-08T19:35:41;89.03;;;52.20;;
22172;SDS011;11252;50.596;17.648;2024-03-08T19:38:09;87.33;;;50.90;;
22172;SDS011;11252;50.596;17.648;2024-03-08T19:40:42;95.23;;;55.87;;
22172;SDS011;11252;50.596;17.648;2024-03-08T19:43:12;94.53;;;55.20;;
22172;SDS011;11252;50.596;17.648;2024-03-08T19:45:42;104.67;;;60.33;;